Brookville, Pennsylvania
Current Conditions -  °F | °C
As of 1:06 AM on Tuesday 21 Oct 2014 (Local Time) from KDUJ Reporting Station
Overcast Overcast  
Wind Chill: 47°   Ceiling: 2300
Heat Index: 47°   Visibility: 10mi
Dew Point: 45°   Wind: 0mph
Humidity: 93%   Direction: NA
Pressure: 29.84"   Gusts: NA
Location:  41.16°N, 79.08°W
Report Text: KDUJ 210506Z AUTO 00000KT 10SM SCT017 BKN023 OVC050 08/07 A2984 RMK AO2 T00830072
Loading
Personal Weather Stations






























Interactive Weather Map
Tropical Storm Tracking
New forecast layout! Learn more

10-Day Weather Forecast

Advertisements
Track Severe Weather on mobile